createdAt,value
2018-07-26T00:00:30.264Z,40.1
2018-07-26T00:01:20.355Z,40.1
2018-07-26T00:02:10.707Z,40.1
2018-07-26T00:03:00.521Z,40.1
2018-07-26T00:03:50.385Z,40.1
2018-07-26T00:04:40.316Z,40.1
2018-07-26T00:05:30.977Z,40.1
2018-07-26T00:06:20.445Z,40.1
2018-07-26T00:07:10.523Z,40.1
2018-07-26T00:08:00.409Z,40.1
2018-07-26T00:08:50.740Z,40.1
2018-07-26T00:09:40.833Z,40.1
2018-07-26T00:10:30.758Z,40
2018-07-26T00:11:21.447Z,40
2018-07-26T00:12:10.171Z,40
2018-07-26T00:12:59.929Z,40
2018-07-26T00:13:51.322Z,40
2018-07-26T00:14:41.656Z,40
2018-07-26T00:15:31.478Z,40
2018-07-26T00:16:21.774Z,40
2018-07-26T00:17:11.575Z,40
2018-07-26T00:18:01.660Z,40
2018-07-26T00:18:51.724Z,39.9
2018-07-26T00:19:41.281Z,39.9
2018-07-26T00:20:31.091Z,39.9
2018-07-26T00:21:20.582Z,39.9
2018-07-26T00:22:11.452Z,39.9
2018-07-26T00:23:01.268Z,39.9
2018-07-26T00:23:51.309Z,39.9
2018-07-26T00:24:42.183Z,39.9
2018-07-26T00:25:31.910Z,39.9
2018-07-26T00:26:22.591Z,39.9
2018-07-26T00:27:11.811Z,39.9
2018-07-26T00:28:01.849Z,39.9
2018-07-26T00:28:52.179Z,39.9
2018-07-26T00:29:42.526Z,39.9
2018-07-26T00:30:32.890Z,39.9
2018-07-26T00:31:22.398Z,39.9
2018-07-26T00:32:13.053Z,39.9
2018-07-26T00:33:02.227Z,39.9
2018-07-26T00:33:52.603Z,39.9
2018-07-26T00:34:42.921Z,39.9
2018-07-26T00:35:32.953Z,39.9
2018-07-26T00:36:23.295Z,39.8
2018-07-26T00:37:13.113Z,39.9
2018-07-26T00:38:03.464Z,39.8
2018-07-26T00:38:53.277Z,39.8
2018-07-26T00:39:43.319Z,39.8
2018-07-26T00:40:33.643Z,39.8
2018-07-26T00:41:23.486Z,39.8
2018-07-26T00:42:13.531Z,39.8
2018-07-26T00:43:03.027Z,39.8
2018-07-26T00:43:53.890Z,39.8
2018-07-26T00:44:42.865Z,39.8
2018-07-26T00:45:34.040Z,39.8
2018-07-26T00:46:23.855Z,39.8
2018-07-26T00:47:13.900Z,39.8
2018-07-26T00:48:03.973Z,39.8
2018-07-26T00:48:55.038Z,39.8
2018-07-26T00:49:43.540Z,39.8
2018-07-26T00:50:34.432Z,39.7
2018-07-26T00:51:24.235Z,39.8
2018-07-26T00:52:14.569Z,39.7
2018-07-26T00:53:04.335Z,39.8
2018-07-26T00:53:54.131Z,39.7
2018-07-26T00:54:44.462Z,39.8
2018-07-26T00:55:34.506Z,39.7
2018-07-26T00:56:24.847Z,39.7
2018-07-26T00:57:14.384Z,39.7
2018-07-26T00:58:04.966Z,39.7
2018-07-26T00:58:55.049Z,39.6
2018-07-26T00:59:44.841Z,39.7
2018-07-26T01:00:35.223Z,39.6
2018-07-26T01:01:24.688Z,39.7
2018-07-26T01:02:14.781Z,39.7
2018-07-26T01:03:05.375Z,39.6
2018-07-26T01:03:54.614Z,39.6
2018-07-26T01:04:45.209Z,39.6
2018-07-26T01:05:35.031Z,39.6
2018-07-26T01:06:25.631Z,39.6
2018-07-26T01:07:15.680Z,39.6
2018-07-26T01:08:05.787Z,39.6
2018-07-26T01:08:54.972Z,39.6
2018-07-26T01:09:45.844Z,39.6
2018-07-26T01:10:35.681Z,39.6
2018-07-26T01:11:25.817Z,39.6
2018-07-26T01:12:16.109Z,39.6
2018-07-26T01:13:05.644Z,39.6
2018-07-26T01:13:55.701Z,39.6
2018-07-26T01:14:46.285Z,39.6
2018-07-26T01:15:35.813Z,39.6
2018-07-26T01:16:24.986Z,39.6
2018-07-26T01:17:16.205Z,39.5
2018-07-26T01:18:05.702Z,39.6
2018-07-26T01:18:56.307Z,39.5
2018-07-26T01:19:46.647Z,39.6
2018-07-26T01:20:36.768Z,39.5
2018-07-26T01:21:26.540Z,39.5
2018-07-26T01:22:16.568Z,39.5
2018-07-26T01:23:06.921Z,39.5
2018-07-26T01:23:57.020Z,39.5
2018-07-26T01:24:46.838Z,39.5
2018-07-26T01:25:37.096Z,39.5
2018-07-26T01:26:26.613Z,39.5
2018-07-26T01:27:17.308Z,39.5
2018-07-26T01:28:06.728Z,39.5
2018-07-26T01:28:56.819Z,39.4
2018-07-26T01:29:46.964Z,39.4
2018-07-26T01:30:37.015Z,39.4
2018-07-26T01:31:27.256Z,39.4
2018-07-26T01:32:16.571Z,39.4
2018-07-26T01:33:06.667Z,39.4
2018-07-26T01:33:57.022Z,39.4
2018-07-26T01:34:47.302Z,39.4
2018-07-26T01:35:37.407Z,39.4
2018-07-26T01:36:26.903Z,39.4
2018-07-26T01:37:17.997Z,39.4
2018-07-26T01:38:08.062Z,39.4
2018-07-26T01:38:57.826Z,39.1
2018-07-26T01:39:47.368Z,38.9
2018-07-26T01:40:37.401Z,38.9
2018-07-26T01:41:27.222Z,39
2018-07-26T01:42:17.730Z,39.1
2018-07-26T01:43:07.675Z,39.2
2018-07-26T01:43:57.774Z,39.4
2018-07-26T01:44:48.143Z,39.6
2018-07-26T01:45:38.173Z,39.8
2018-07-26T01:46:28.205Z,40
2018-07-26T01:47:18.295Z,40.2
2018-07-26T01:48:08.322Z,40.4
2018-07-26T01:48:58.947Z,40.7
2018-07-26T01:49:48.706Z,41
2018-07-26T01:50:38.247Z,41.2
2018-07-26T01:51:29.099Z,41.4
2018-07-26T01:52:18.844Z,41.8
2018-07-26T01:53:09.270Z,42
2018-07-26T01:53:58.738Z,42.3
2018-07-26T01:54:48.825Z,42.5
2018-07-26T01:55:39.387Z,42.8
2018-07-26T01:56:29.475Z,43
2018-07-26T01:57:19.228Z,43.3
2018-07-26T01:58:09.316Z,43.5
2018-07-26T01:58:59.405Z,43.8
2018-07-26T01:59:49.693Z,44
2018-07-26T02:00:39.759Z,44.3
2018-07-26T02:01:29.837Z,44.4
2018-07-26T02:02:19.901Z,44.8
2018-07-26T02:03:09.991Z,44.9
2018-07-26T02:04:00.046Z,45.3
2018-07-26T02:04:50.120Z,45.4
2018-07-26T02:05:39.880Z,45.7
2018-07-26T02:06:29.418Z,45.9
2018-07-26T02:07:20.072Z,46.2
2018-07-26T02:08:10.397Z,46.4
2018-07-26T02:08:59.899Z,46.7
2018-07-26T02:09:49.953Z,46.9
2018-07-26T02:10:39.842Z,47.3
2018-07-26T02:11:30.096Z,47.4
2018-07-26T02:12:20.107Z,47.7
2018-07-26T02:13:10.760Z,48
2018-07-26T02:14:00.815Z,48.3
2018-07-26T02:14:50.362Z,48.5
2018-07-26T02:15:40.649Z,48.8
2018-07-26T02:16:30.450Z,49
2018-07-26T02:17:21.110Z,49.2
2018-07-26T02:18:11.147Z,49.5
2018-07-26T02:19:01.235Z,49.8
2018-07-26T02:19:51.278Z,50
2018-07-26T02:20:41.058Z,50.3
2018-07-26T02:21:30.834Z,50.5
2018-07-26T02:22:21.180Z,50.8
2018-07-26T02:23:10.967Z,51
2018-07-26T02:24:01.300Z,51.3
2018-07-26T02:24:51.717Z,51.5
2018-07-26T02:25:41.463Z,51.8
2018-07-26T02:26:31.797Z,52
2018-07-26T02:27:21.820Z,52.3
2018-07-26T02:28:11.421Z,52.5
2018-07-26T02:29:01.726Z,52.8
2018-07-26T02:29:51.008Z,53
2018-07-26T02:30:41.349Z,53.3
2018-07-26T02:31:31.418Z,53.5
2018-07-26T02:32:20.982Z,53.7
2018-07-26T02:33:11.059Z,54
2018-07-26T02:34:01.404Z,54.3
2018-07-26T02:34:51.494Z,54.5
2018-07-26T02:35:41.739Z,54.7
2018-07-26T02:36:31.777Z,55
2018-07-26T02:37:21.841Z,55.2
2018-07-26T02:38:12.238Z,55.4
2018-07-26T02:39:02.001Z,55.8
2018-07-26T02:39:51.755Z,56
2018-07-26T02:40:42.900Z,56.1
2018-07-26T02:41:32.941Z,56.1
2018-07-26T02:42:23.035Z,56.2
2018-07-26T02:43:13.065Z,56.3
2018-07-26T02:44:02.569Z,56.3
2018-07-26T02:44:52.926Z,56.4
2018-07-26T02:45:43.000Z,56.4
2018-07-26T02:46:33.292Z,56.4
2018-07-26T02:47:23.351Z,56.4
2018-07-26T02:48:12.623Z,56.4
2018-07-26T02:49:02.707Z,56.4
2018-07-26T02:49:52.870Z,56.4
2018-07-26T02:50:43.637Z,56.4
2018-07-26T02:51:33.417Z,56.4
2018-07-26T02:52:23.227Z,56.4
2018-07-26T02:53:13.587Z,56.4
2018-07-26T02:54:03.061Z,56.4
2018-07-26T02:54:53.957Z,56.4
2018-07-26T02:55:43.767Z,56.4
2018-07-26T02:56:33.540Z,56.4
2018-07-26T02:57:23.327Z,56.4
2018-07-26T02:58:13.380Z,56.4
2018-07-26T02:59:03.511Z,56.4
2018-07-26T02:59:54.357Z,56.4
2018-07-26T03:00:44.159Z,56.4
2018-07-26T03:01:33.614Z,56.4
2018-07-26T03:02:24.562Z,56.4
2018-07-26T03:03:14.636Z,56.4
2018-07-26T03:04:04.102Z,56.4
2018-07-26T03:04:54.422Z,56.4
2018-07-26T03:05:44.033Z,56.4
2018-07-26T03:06:34.559Z,56.4
2018-07-26T03:07:24.661Z,56.4
2018-07-26T03:08:14.442Z,56.3
2018-07-26T03:09:04.501Z,56.4
2018-07-26T03:09:55.137Z,56.4
2018-07-26T03:10:44.609Z,56.3
2018-07-26T03:11:34.982Z,56.3
2018-07-26T03:12:24.722Z,56.3
2018-07-26T03:13:14.867Z,56.3
2018-07-26T03:14:05.180Z,56.3
2018-07-26T03:14:55.489Z,56.3
2018-07-26T03:15:45.359Z,56.3
2018-07-26T03:16:35.646Z,56.3
2018-07-26T03:17:25.391Z,56.3
2018-07-26T03:18:15.766Z,56.3
2018-07-26T03:19:05.288Z,56.3
2018-07-26T03:19:55.611Z,56.3
2018-07-26T03:20:45.498Z,56.3
2018-07-26T03:21:36.077Z,56.3
2018-07-26T03:22:25.868Z,56.3
2018-07-26T03:23:15.873Z,56.2
2018-07-26T03:24:05.933Z,56.3
2018-07-26T03:24:55.446Z,56.2
2018-07-26T03:25:46.225Z,56.2
2018-07-26T03:26:36.113Z,56.2
2018-07-26T03:27:26.490Z,56.2
2018-07-26T03:28:15.943Z,56.2
2018-07-26T03:29:05.731Z,56.2
2018-07-26T03:29:56.652Z,56.2
2018-07-26T03:30:46.794Z,56.2
2018-07-26T03:31:36.210Z,56.2
2018-07-26T03:32:25.967Z,56.1
2018-07-26T03:33:16.364Z,56.1
2018-07-26T03:34:06.382Z,56.1
2018-07-26T03:34:56.750Z,56.1
2018-07-26T03:35:46.535Z,56.1
2018-07-26T03:36:37.183Z,56.1
2018-07-26T03:37:26.616Z,56.1
2018-07-26T03:38:17.034Z,56.1
2018-07-26T03:39:07.334Z,56.1
2018-07-26T03:39:57.409Z,56.1
2018-07-26T03:40:46.887Z,56.1
2018-07-26T03:41:37.580Z,56.1
2018-07-26T03:42:27.313Z,56.1
2018-07-26T03:43:17.645Z,56.1
2018-07-26T03:44:07.709Z,56.1
2018-07-26T03:44:57.515Z,56.1
2018-07-26T03:45:47.802Z,56.1
2018-07-26T03:46:37.890Z,56
2018-07-26T03:47:27.658Z,56
2018-07-26T03:48:17.458Z,56
2018-07-26T03:49:07.231Z,56
2018-07-26T03:49:57.303Z,56
2018-07-26T03:50:48.043Z,56
2018-07-26T03:51:38.023Z,56
2018-07-26T03:52:28.343Z,56
2018-07-26T03:53:17.596Z,55.9
2018-07-26T03:54:08.483Z,55.9
2018-07-26T03:54:58.540Z,55.9
2018-07-26T03:55:48.660Z,55.9
2018-07-26T03:56:38.393Z,55.9
2018-07-26T03:57:28.707Z,55.9
2018-07-26T03:58:18.520Z,55.9
2018-07-26T03:59:08.574Z,55.9
2018-07-26T03:59:58.400Z,55.9
2018-07-26T04:00:49.009Z,55.9
2018-07-26T04:01:39.041Z,55.9
2018-07-26T04:02:29.095Z,55.9
2018-07-26T04:03:19.762Z,55.9
2018-07-26T04:04:08.993Z,55.9
2018-07-26T04:04:59.084Z,55.9
2018-07-26T04:05:49.372Z,55.9
2018-07-26T04:06:39.430Z,55.9
2018-07-26T04:07:28.944Z,55.9
2018-07-26T04:08:19.294Z,55.8
2018-07-26T04:09:09.627Z,55.8
2018-07-26T04:09:59.434Z,55.9
2018-07-26T04:10:48.932Z,55.8
2018-07-26T04:11:39.807Z,55.8
2018-07-26T04:12:29.585Z,55.8
2018-07-26T04:13:19.685Z,55.8
2018-07-26T04:14:10.742Z,55.8
2018-07-26T04:14:59.492Z,55.8
2018-07-26T04:15:50.109Z,55.8
2018-07-26T04:16:39.918Z,55.8
2018-07-26T04:17:29.711Z,55.8
2018-07-26T04:18:20.037Z,55.8
2018-07-26T04:19:10.367Z,55.8
2018-07-26T04:20:00.904Z,55.8
2018-07-26T04:20:50.539Z,55.8
2018-07-26T04:21:39.736Z,55.8
2018-07-26T04:22:30.602Z,55.8
2018-07-26T04:23:20.695Z,55.7
2018-07-26T04:24:10.761Z,55.7
2018-07-26T04:25:00.235Z,55.7
2018-07-26T04:25:50.126Z,55.7
2018-07-26T04:26:40.192Z,55.7
2018-07-26T04:27:30.262Z,55.7
2018-07-26T04:28:20.324Z,55.7
2018-07-26T04:29:11.195Z,55.7
2018-07-26T04:30:00.649Z,55.7
2018-07-26T04:30:50.172Z,55.6
2018-07-26T04:31:40.844Z,55.7
2018-07-26T04:32:31.436Z,55.6
2018-07-26T04:33:21.229Z,55.6
2018-07-26T04:34:11.281Z,55.6
2018-07-26T04:35:01.599Z,55.6
2018-07-26T04:35:51.099Z,55.6
2018-07-26T04:36:40.729Z,55.6
2018-07-26T04:37:31.783Z,55.6
2018-07-26T04:38:21.843Z,55.6
2018-07-26T04:39:11.464Z,55.6
2018-07-26T04:40:01.710Z,55.6
2018-07-26T04:40:51.489Z,55.6
2018-07-26T04:41:42.097Z,55.6
2018-07-26T04:42:31.613Z,55.6
2018-07-26T04:43:21.714Z,55.6
2018-07-26T04:44:11.748Z,55.6
2018-07-26T04:45:02.073Z,55.6
2018-07-26T04:45:52.144Z,55.5
2018-07-26T04:46:41.919Z,55.5
2018-07-26T04:47:32.086Z,55.5
2018-07-26T04:48:22.618Z,55.5
2018-07-26T04:49:12.390Z,55.5
2018-07-26T04:50:02.725Z,55.5
2018-07-26T04:50:52.311Z,55.5
2018-07-26T04:51:42.866Z,55.5
2018-07-26T04:52:32.686Z,55.5
2018-07-26T04:53:22.447Z,55.4
2018-07-26T04:54:13.165Z,55.4
2018-07-26T04:55:03.131Z,55.4
2018-07-26T04:55:52.626Z,55.4
2018-07-26T04:56:42.988Z,55.4
2018-07-26T04:57:33.048Z,55.4
2018-07-26T04:58:22.808Z,55.4
2018-07-26T04:59:13.427Z,55.4
2018-07-26T05:00:02.680Z,55.4
2018-07-26T05:00:53.030Z,55.4
2018-07-26T05:01:43.329Z,55.4
2018-07-26T05:02:33.418Z,55.4
2018-07-26T05:03:23.207Z,55.4
2018-07-26T05:04:13.517Z,55.4
2018-07-26T05:05:03.921Z,55.4
2018-07-26T05:05:53.679Z,55.4
2018-07-26T05:06:43.521Z,55.4
2018-07-26T05:07:33.237Z,55.4
2018-07-26T05:08:23.600Z,55.3
2018-07-26T05:09:13.378Z,55.3
2018-07-26T05:10:03.747Z,55.3
2018-07-26T05:10:54.059Z,55.3
2018-07-26T05:11:44.190Z,55.3
2018-07-26T05:12:34.528Z,55.3
2018-07-26T05:13:24.298Z,55.3
2018-07-26T05:14:14.044Z,55.3
2018-07-26T05:15:18.278Z,55.3
2018-07-26T05:15:54.454Z,55.3
2018-07-26T05:16:44.534Z,55.3
2018-07-26T05:17:34.838Z,55.3
2018-07-26T05:18:24.663Z,55.3
2018-07-26T05:19:15.794Z,55.3
2018-07-26T05:20:04.787Z,55.3
2018-07-26T05:20:54.271Z,55.2
2018-07-26T05:21:45.145Z,55.2
2018-07-26T05:22:34.402Z,55.3
2018-07-26T05:23:25.254Z,55.2
2018-07-26T05:24:15.075Z,55.2
2018-07-26T05:25:05.397Z,55.2
2018-07-26T05:25:55.479Z,55.2
2018-07-26T05:26:45.011Z,55.2
2018-07-26T05:27:35.364Z,55.2
2018-07-26T05:28:25.380Z,55.1
2018-07-26T05:29:15.740Z,55.2
2018-07-26T05:30:05.806Z,55.2
2018-07-26T05:30:55.555Z,55.1
2018-07-26T05:31:45.701Z,55.1
2018-07-26T05:32:35.706Z,55.1
2018-07-26T05:33:25.796Z,55.1
2018-07-26T05:34:16.102Z,55.1
2018-07-26T05:35:06.218Z,55.1
2018-07-26T05:35:55.974Z,55.1
2018-07-26T05:36:46.051Z,55.1
2018-07-26T05:37:36.244Z,55.1
2018-07-26T05:38:26.460Z,55.1
2018-07-26T05:39:16.229Z,55.1
2018-07-26T05:40:06.578Z,55.1
2018-07-26T05:40:56.618Z,55.1
2018-07-26T05:41:46.452Z,55.1
2018-07-26T05:42:35.940Z,55.1
2018-07-26T05:43:26.290Z,55.1
2018-07-26T05:44:16.340Z,55
2018-07-26T05:45:06.209Z,55
2018-07-26T05:45:57.003Z,55
2018-07-26T05:46:46.575Z,55
2018-07-26T05:47:37.174Z,55
2018-07-26T05:48:26.660Z,55
2018-07-26T05:49:16.740Z,55
2018-07-26T05:50:07.338Z,55
2018-07-26T05:50:56.470Z,55
2018-07-26T05:51:46.939Z,54.9
2018-07-26T05:52:37.575Z,54.9
2018-07-26T05:53:27.820Z,54.9
2018-07-26T05:54:17.706Z,54.9
2018-07-26T05:55:07.743Z,54.9
2018-07-26T05:55:57.048Z,54.9
2018-07-26T05:56:47.033Z,54.9
2018-07-26T05:57:37.165Z,54.9
2018-07-26T05:58:27.732Z,54.9
2018-07-26T05:59:17.535Z,54.9
2018-07-26T06:00:08.473Z,54.9
2018-07-26T06:00:58.142Z,54.9
2018-07-26T06:01:47.909Z,54.9
2018-07-26T06:02:38.277Z,54.9
2018-07-26T06:03:28.066Z,54.9
2018-07-26T06:04:18.455Z,54.9
2018-07-26T06:05:08.196Z,54.9
2018-07-26T06:05:58.270Z,54.8
2018-07-26T06:06:48.329Z,54.8
2018-07-26T06:07:38.664Z,54.8
2018-07-26T06:08:28.494Z,54.8
2018-07-26T06:09:18.806Z,54.8
2018-07-26T06:10:08.852Z,54.8
2018-07-26T06:10:58.903Z,54.8
2018-07-26T06:11:48.689Z,54.8
2018-07-26T06:12:38.760Z,54.8
2018-07-26T06:13:29.091Z,54.8
2018-07-26T06:14:19.163Z,54.8
2018-07-26T06:15:09.238Z,54.8
2018-07-26T06:15:59.308Z,54.8
2018-07-26T06:16:49.390Z,54.8
2018-07-26T06:17:39.446Z,54.8
2018-07-26T06:18:29.249Z,54.8
2018-07-26T06:19:19.348Z,54.8
2018-07-26T06:20:09.379Z,54.8
2018-07-26T06:20:59.736Z,54.7
2018-07-26T06:21:49.516Z,54.7
2018-07-26T06:22:39.579Z,54.7
2018-07-26T06:23:29.657Z,54.7
2018-07-26T06:24:20.035Z,54.7
2018-07-26T06:25:10.049Z,54.7
2018-07-26T06:25:59.310Z,54.7
2018-07-26T06:26:49.864Z,54.7
2018-07-26T06:27:39.922Z,54.6
2018-07-26T06:28:29.990Z,54.6
2018-07-26T06:29:20.327Z,54.6
2018-07-26T06:30:10.428Z,54.6
2018-07-26T06:31:00.446Z,54.6
2018-07-26T06:31:50.313Z,54.6
2018-07-26T06:32:40.564Z,54.6
2018-07-26T06:33:31.327Z,54.6
2018-07-26T06:34:20.467Z,54.6
2018-07-26T06:35:10.525Z,54.6
2018-07-26T06:36:00.861Z,54.6
2018-07-26T06:36:50.698Z,54.6
2018-07-26T06:37:41.011Z,54.6
2018-07-26T06:38:30.494Z,54.6
2018-07-26T06:39:20.912Z,54.6
2018-07-26T06:40:10.357Z,54.6
2018-07-26T06:41:01.245Z,54.6
2018-07-26T06:41:51.322Z,54.5
2018-07-26T06:42:41.110Z,54.5
2018-07-26T06:43:31.459Z,54.5
2018-07-26T06:44:20.928Z,54.5
2018-07-26T06:45:11.114Z,54.5
2018-07-26T06:46:01.378Z,54.5
2018-07-26T06:46:51.433Z,54.5
2018-07-26T06:47:41.761Z,54.5
2018-07-26T06:48:31.592Z,54.5
2018-07-26T06:49:21.316Z,54.4
2018-07-26T06:50:11.402Z,54.4
2018-07-26T06:51:01.555Z,54.4
2018-07-26T06:51:51.550Z,54.4
2018-07-26T06:52:41.044Z,54.4
2018-07-26T06:53:32.187Z,54.4
2018-07-26T06:54:21.982Z,54.4
2018-07-26T06:55:11.761Z,54.4
2018-07-26T06:56:01.831Z,54.4
2018-07-26T06:56:52.184Z,54.4
2018-07-26T06:57:41.230Z,54.4
2018-07-26T06:58:32.565Z,54.4
2018-07-26T06:59:22.089Z,54.4
2018-07-26T07:00:12.710Z,54.4
2018-07-26T07:01:02.037Z,54.4
2018-07-26T07:01:52.830Z,54.4
2018-07-26T07:02:42.919Z,54.3
2018-07-26T07:03:32.970Z,54.3
2018-07-26T07:04:23.022Z,54.3
2018-07-26T07:05:13.109Z,54.3
2018-07-26T07:06:03.146Z,54.3
2018-07-26T07:06:52.944Z,54.3
2018-07-26T07:07:42.990Z,54.3
2018-07-26T07:08:33.051Z,54.3
2018-07-26T07:09:23.139Z,54.3
2018-07-26T07:10:13.198Z,54.3
2018-07-26T07:11:03.064Z,54.3
2018-07-26T07:11:53.067Z,54.3
2018-07-26T07:12:43.210Z,54.3
2018-07-26T07:13:33.496Z,54.3
2018-07-26T07:14:23.590Z,54.3
2018-07-26T07:15:13.331Z,54.3
2018-07-26T07:16:03.948Z,54.3
2018-07-26T07:16:53.992Z,54.2
2018-07-26T07:17:44.043Z,54.3
2018-07-26T07:18:33.362Z,54.2
2018-07-26T07:19:23.901Z,54.2
2018-07-26T07:20:14.281Z,54.2
2018-07-26T07:21:04.097Z,54.2
2018-07-26T07:21:54.363Z,54.2
2018-07-26T07:22:44.460Z,54.2
2018-07-26T07:23:33.423Z,54.2
2018-07-26T07:24:24.301Z,54.2
2018-07-26T07:25:14.355Z,54.1
2018-07-26T07:26:04.878Z,54.1
2018-07-26T07:26:54.783Z,54.1
2018-07-26T07:27:44.524Z,54.1
2018-07-26T07:28:34.431Z,54.1
2018-07-26T07:29:24.943Z,54.1
2018-07-26T07:30:14.769Z,54.1
2018-07-26T07:31:04.809Z,54.1
2018-07-26T07:31:55.210Z,54.1
2018-07-26T07:32:44.665Z,54.1
2018-07-26T07:33:35.343Z,54.1
2018-07-26T07:34:25.356Z,54.1
2018-07-26T07:35:15.109Z,54.1
2018-07-26T07:36:04.168Z,54.1
2018-07-26T07:36:54.771Z,54.1
2018-07-26T07:37:45.615Z,54.1
2018-07-26T07:38:35.391Z,54.1
2018-07-26T07:39:25.481Z,54.1
2018-07-26T07:40:15.838Z,54
2018-07-26T07:41:05.485Z,54
2018-07-26T07:41:56.033Z,54
2018-07-26T07:42:45.160Z,54
2018-07-26T07:43:35.220Z,54
2018-07-26T07:44:26.101Z,54
2018-07-26T07:45:15.891Z,54
2018-07-26T07:46:05.729Z,54
2018-07-26T07:46:56.082Z,54
2018-07-26T07:47:46.650Z,53.9
2018-07-26T07:48:36.164Z,53.9
2018-07-26T07:49:26.547Z,53.9
2018-07-26T07:50:16.572Z,53.9
2018-07-26T07:51:06.372Z,53.9
2018-07-26T07:51:56.436Z,53.9
2018-07-26T07:52:46.930Z,53.9
2018-07-26T07:53:36.845Z,53.9
2018-07-26T07:54:26.916Z,53.9
2018-07-26T07:55:16.737Z,53.8
2018-07-26T07:56:07.056Z,53.8
2018-07-26T07:56:56.843Z,53.8
2018-07-26T07:57:46.914Z,53.8
2018-07-26T07:58:36.652Z,53.8
2018-07-26T07:59:27.287Z,53.9
2018-07-26T08:00:16.557Z,53.9
2018-07-26T08:01:07.402Z,53.9
2018-07-26T08:01:56.355Z,54
2018-07-26T08:02:47.581Z,54
2018-07-26T08:03:37.304Z,54.1
2018-07-26T08:04:27.107Z,54.1
2018-07-26T08:05:18.295Z,54.2
2018-07-26T08:06:07.562Z,54.3
2018-07-26T08:06:57.880Z,54.3
2018-07-26T08:07:47.914Z,54.4
2018-07-26T08:08:37.444Z,54.5
2018-07-26T08:09:27.787Z,54.6
2018-07-26T08:10:17.295Z,54.6
2018-07-26T08:11:07.697Z,54.8
2018-07-26T08:11:58.293Z,54.8
2018-07-26T08:12:47.871Z,54.9
2018-07-26T08:13:38.147Z,54.9
2018-07-26T08:14:28.187Z,55.1
2018-07-26T08:15:17.945Z,55.1
2018-07-26T08:16:08.583Z,55.2
2018-07-26T08:16:58.474Z,55.3
2018-07-26T08:17:48.747Z,55.3
2018-07-26T08:18:38.565Z,55.4
2018-07-26T08:19:28.578Z,55.5
2018-07-26T08:20:18.885Z,55.6
2018-07-26T08:21:08.713Z,55.6
2018-07-26T08:21:59.013Z,55.7
2018-07-26T08:22:48.814Z,55.8
2018-07-26T08:23:38.585Z,55.8
2018-07-26T08:24:28.976Z,55.9
2018-07-26T08:25:18.449Z,55.9
2018-07-26T08:26:09.369Z,56
2018-07-26T08:26:58.867Z,56.1
2018-07-26T08:27:49.217Z,56.1
2018-07-26T08:28:39.549Z,56.2
2018-07-26T08:29:29.508Z,56.3
2018-07-26T08:30:19.405Z,56.4
2018-07-26T08:31:09.471Z,56.4
2018-07-26T08:31:59.535Z,56.5
2018-07-26T08:32:49.574Z,56.6
2018-07-26T08:33:39.934Z,56.6
2018-07-26T08:34:29.524Z,56.7
2018-07-26T08:35:19.517Z,56.8
2018-07-26T08:36:10.132Z,56.8
2018-07-26T08:36:59.657Z,56.9
2018-07-26T08:37:50.247Z,56.9
2018-07-26T08:38:40.309Z,57.1
2018-07-26T08:39:30.425Z,57.1
2018-07-26T08:40:20.452Z,57.2
2018-07-26T08:41:11.415Z,57.3
2018-07-26T08:41:59.546Z,57.4
2018-07-26T08:42:50.063Z,57.4
2018-07-26T08:43:40.809Z,57.5
2018-07-26T08:44:30.748Z,57.6
2018-07-26T08:45:20.840Z,57.7
2018-07-26T08:46:10.882Z,57.7
2018-07-26T08:47:00.928Z,57.8
2018-07-26T08:47:51.020Z,57.9
2018-07-26T08:48:41.085Z,57.9
2018-07-26T08:49:31.145Z,58
2018-07-26T08:50:20.922Z,58.1
2018-07-26T08:51:11.277Z,58.2
2018-07-26T08:52:01.065Z,58.3
2018-07-26T08:52:51.391Z,58.3
2018-07-26T08:53:41.182Z,58.4
2018-07-26T08:54:31.260Z,58.5
2018-07-26T08:56:11.407Z,58.6
2018-07-26T08:57:01.469Z,58.7
2018-07-26T08:57:51.526Z,58.8
2018-07-26T08:58:41.867Z,58.9
2018-07-26T08:59:31.934Z,59
2018-07-26T09:00:21.139Z,59.1
2018-07-26T09:01:12.776Z,59.1
2018-07-26T09:02:01.653Z,59.2
2018-07-26T09:02:51.558Z,59.2
2018-07-26T09:03:42.274Z,59.3
2018-07-26T09:04:32.340Z,59.4
2018-07-26T09:05:22.111Z,59.4
2018-07-26T09:06:12.185Z,59.4
2018-07-26T09:07:02.360Z,59.5
2018-07-26T09:07:52.590Z,59.6
2018-07-26T09:08:41.873Z,59.6
2018-07-26T09:09:32.717Z,59.7
2018-07-26T09:10:22.774Z,59.8
2018-07-26T09:11:12.637Z,59.8
2018-07-26T09:12:02.366Z,59.9
2018-07-26T09:12:52.980Z,59.9
2018-07-26T09:13:43.341Z,59.9
2018-07-26T09:14:33.127Z,60
2018-07-26T09:15:22.879Z,60
2018-07-26T09:16:13.206Z,60.1
2018-07-26T09:17:03.031Z,60.1
2018-07-26T09:17:52.673Z,60.1
2018-07-26T09:18:43.438Z,60.1
2018-07-26T09:19:33.341Z,60.1
2018-07-26T09:20:23.515Z,60.2
2018-07-26T09:21:13.121Z,60.2
2018-07-26T09:22:03.408Z,60.2
2018-07-26T09:22:53.760Z,60.2
2018-07-26T09:23:43.801Z,60.2
2018-07-26T09:24:34.538Z,60.2
2018-07-26T09:25:23.660Z,60.2
2018-07-26T09:26:14.404Z,60.2
2018-07-26T09:27:04.046Z,60.3
2018-07-26T09:27:54.110Z,60.2
2018-07-26T09:28:44.177Z,60.3
2018-07-26T09:29:33.972Z,60.3
2018-07-26T09:30:24.310Z,60.3
2018-07-26T09:31:14.387Z,60.3
2018-07-26T09:32:04.195Z,60.4
2018-07-26T09:32:54.776Z,60.4
2018-07-26T09:33:44.600Z,60.4
2018-07-26T09:34:34.671Z,60.5
2018-07-26T09:35:25.113Z,60.5
2018-07-26T09:36:14.790Z,60.6
2018-07-26T09:37:04.835Z,60.6
2018-07-26T09:37:54.621Z,60.6
2018-07-26T09:38:44.946Z,60.7
2018-07-26T09:39:35.011Z,60.8
2018-07-26T09:40:24.863Z,60.8
2018-07-26T09:41:15.965Z,60.9
2018-07-26T09:42:04.960Z,60.9
2018-07-26T09:42:54.758Z,61
2018-07-26T09:43:45.069Z,61.1
2018-07-26T09:44:35.145Z,61.1
2018-07-26T09:45:25.526Z,61.2
2018-07-26T09:46:14.986Z,61.3
2018-07-26T09:47:05.354Z,61.4
2018-07-26T09:47:55.132Z,61.4
2018-07-26T09:48:45.778Z,61.5
2018-07-26T09:49:35.041Z,61.6
2018-07-26T09:50:25.892Z,61.7
2018-07-26T09:51:15.665Z,61.7
2018-07-26T09:52:06.019Z,61.8
2018-07-26T09:52:55.796Z,61.9
2018-07-26T09:53:46.138Z,62
2018-07-26T09:54:36.169Z,62.1
2018-07-26T09:55:25.984Z,62.1
2018-07-26T09:56:16.321Z,62.2
2018-07-26T09:57:05.600Z,62.3
2018-07-26T09:57:56.460Z,62.4
2018-07-26T09:58:45.712Z,62.4
2018-07-26T09:59:36.676Z,62.6
2018-07-26T10:00:26.560Z,62.6
2018-07-26T10:01:16.503Z,62.7
2018-07-26T10:02:06.768Z,62.8
2018-07-26T10:02:56.587Z,62.9
2018-07-26T10:03:46.901Z,62.9
2018-07-26T10:04:36.407Z,63.1
2018-07-26T10:05:27.066Z,63.1
2018-07-26T10:06:16.811Z,63.2
2018-07-26T10:07:07.163Z,63.3
2018-07-26T10:07:56.396Z,63.4
2018-07-26T10:08:47.020Z,63.5
2018-07-26T10:09:37.414Z,63.6
2018-07-26T10:10:26.913Z,63.6
2018-07-26T10:11:17.489Z,63.7
2018-07-26T10:12:07.008Z,63.8
2018-07-26T10:12:57.647Z,63.9
2018-07-26T10:13:47.697Z,64
2018-07-26T10:14:37.497Z,64.1
2018-07-26T10:15:27.566Z,64.1
2018-07-26T10:16:17.877Z,64.3
2018-07-26T10:17:08.017Z,64.4
2018-07-26T10:17:58.018Z,64.4
2018-07-26T10:18:47.796Z,64.5
2018-07-26T10:19:37.871Z,64.6
2018-07-26T10:20:27.364Z,64.7
2018-07-26T10:21:18.329Z,64.8
2018-07-26T10:22:08.384Z,64.9
2018-07-26T10:22:57.856Z,64.9
2018-07-26T10:23:48.532Z,65
2018-07-26T10:24:38.577Z,65.1
2018-07-26T10:25:28.617Z,65.2
2018-07-26T10:26:18.109Z,65.3
2018-07-26T10:27:08.457Z,65.3
2018-07-26T10:27:58.749Z,65.4
2018-07-26T10:28:48.077Z,65.4
2018-07-26T10:29:38.638Z,65.5
2018-07-26T10:30:28.994Z,65.6
2018-07-26T10:31:18.579Z,65.6
2018-07-26T10:32:09.118Z,65.6
2018-07-26T10:32:59.213Z,65.6
2018-07-26T10:33:48.972Z,65.7
2018-07-26T10:34:39.289Z,65.7
2018-07-26T10:35:29.361Z,65.8
2018-07-26T10:36:19.088Z,65.8
2018-07-26T10:37:09.501Z,65.8
2018-07-26T10:37:59.301Z,65.8
2018-07-26T10:38:49.493Z,65.8
2018-07-26T10:39:39.417Z,65.8
2018-07-26T10:40:29.760Z,65.8
2018-07-26T10:41:19.361Z,65.8
2018-07-26T10:42:09.908Z,65.8
2018-07-26T10:42:59.964Z,65.8
2018-07-26T10:43:49.443Z,65.8
2018-07-26T10:44:40.837Z,65.8
2018-07-26T10:45:30.178Z,65.9
2018-07-26T10:46:19.936Z,65.9
2018-07-26T10:47:09.710Z,65.9
2018-07-26T10:47:59.825Z,65.9
2018-07-26T10:48:50.437Z,65.9
2018-07-26T10:49:40.281Z,65.9
2018-07-26T10:50:30.292Z,65.9
2018-07-26T10:51:20.323Z,66
2018-07-26T10:52:10.665Z,66.1
2018-07-26T10:53:00.489Z,66.1
2018-07-26T10:53:49.959Z,66.1
2018-07-26T10:54:40.887Z,66.1
2018-07-26T10:55:30.680Z,66.1
2018-07-26T10:56:20.733Z,66.1
2018-07-26T10:57:11.068Z,66.1
2018-07-26T10:58:00.578Z,66.1
2018-07-26T10:58:50.660Z,66.1
2018-07-26T10:59:40.991Z,66.1
2018-07-26T11:00:31.080Z,66.1
2018-07-26T11:01:21.134Z,66.1
2018-07-26T11:02:11.447Z,66.2
2018-07-26T11:03:01.525Z,66.2
2018-07-26T11:03:51.575Z,66.2
2018-07-26T11:04:41.635Z,66.2
2018-07-26T11:05:31.140Z,66.2
2018-07-26T11:06:20.947Z,66.2
2018-07-26T11:07:11.850Z,66.2
2018-07-26T11:08:01.877Z,66.2
2018-07-26T11:08:51.413Z,66.2
2018-07-26T11:09:42.547Z,66.2
2018-07-26T11:10:31.828Z,66.1